עמוד ראשי
METAR-TAF:

METAR-TAF

שדות תעופה :

טוסון, אריזונה, ארצות הברית

קו רוחב: 32-07-53N, קו אורך: 110-57-19W, גובה: 805מטר

תצפית מזג אוויר נוכחית

הדו"ח נערך לפני 1 שעות ו 11דקות, בשעה 06:53 UTC
רוח 4קשר מכיוון דרום-מזרח
טמפרטורת 32 צלסיוס
לחות 14%
לחץ 1011 hPa
ראות: 16.1קילומטר
שמיים נקיים

METAR: KTUS 160653Z 13004KT 10SM CLR 32/01 A2985 RMK AO2 SLP047 T03220011 404170211

זמן: 01:04 (08:04 UTC)

תחזית

הדו"ח נערך לפני 2 שעות ו 44דקות, בשעה 05:20 UTC
תחזית בתוקף מ 16 ב 06 UTC עד 17 ב 06 UTC
רוח 9קשר מכיוון מערב
ראות: 10קילומטר
שמיים נקיים
מ 16 ב 0800UTC
רוח 7קשר מכיוון דרום/דרום-מזרח
ראות: 10קילומטר
שמיים נקיים
מ 16 ב 2100UTC
רוח 10קשר מכיוון מערב/דרום-מערב עם משבים עד 18קשר
ראות: 10קילומטר
שמיים נקיים
מ 17 ב 0300UTC
רוח 8קשר מכיוון מערב
ראות: 10קילומטר
שמיים נקיים

TAF: KTUS 160520Z 1606/1706 26009KT P6SM SKC FM160800 16007KT P6SM SKC FM162100 25010G18KT P6SM SKC FM170300 27008KT P6SM SKC

תצפיות ותחזיות מזג אוויר לגבי יותר מ- 4,000 שדות תעופה ברחבי העולם. דוחות METAR ו- TAF.

התחנות הזמינות מסומנות בנקודות צהובות ואדומות על גבי המפה.

העבר את העכבר לנקודה הצבעונית על מנת לראות את שם התחנה.

לאחר מכן, לחץ כדי לראות את תוכן ואת תחזיות מזג האוויר.

כדי לשנות את המפה: לחץ על הכפתורים הירוקים עם הפלוס השחור כדי להתקרב; על הכפתור הירוק עם המקף כדי להתרחק; או בחיצים הירוקים למפות סמוכות.


METAR-TAF: